AirNav   TITAN Aviation Fuels
 
 384 users online  

0CN1 Fiorini Ranch Airport
Delhi, California, USA

GOING TO DELHI?


FAA INFORMATION EFFECTIVE 03 NOVEMBER 2022

Location

FAA Identifier: 0CN1
Lat/Long: 37-27-07.8400N 120-45-53.1300W
37-27.130667N 120-45.885500W
37.4521778,-120.7647583
(estimated)
Elevation: 140 ft. / 43 m (estimated)
From city: 1 mile NNE of DELHI, CA
Time zone: UTC -8 (UTC -7 during Daylight Saving Time)
Zip code: 95315

Airport Operations

Airport use: Private use. Permission required prior to landing
Activation date: 11/2016
Control tower: no
ARTCC: OAKLAND CENTER
FSS: RANCHO MURIETA FLIGHT SERVICE STATION
Attendance: UNATNDD
Wind indicator: yes
Segmented circle: no

Airport Communications

WX AWOS-3 at MER (10 nm SE): PHONE 209-725-0104
WX ASOS at MOD (14 nm NW): 127.7 (209-572-0914)
WX ASOS at MCE (16 nm SE): 132.175 (209-381-0926)

Nearby radio navigation aids

VOR radial/distance  VOR name  Freq  Var
MODr122/14.0MODESTO VOR/DME114.6017E
HYPr294/22.3EL NIDO VOR/DME114.2015E
LINr146/39.0LINDEN VOR/DME114.8017E

Airport Services

Runway Information

Runway 16/34

Dimensions: 2229 x 80 ft. / 679 x 24 m
Surface: asphalt
RUNWAY 16  RUNWAY 34
Latitude: 37-27.314333N37-26.947000N
Longitude: 120-45.885333W120-45.885500W
Elevation: 140.0 ft.128.0 ft.
Traffic pattern: leftleft
Touchdown point: yes, no lightsyes, no lights

Airport Ownership and Management from official FAA records

Ownership: Privately-owned
Owner: FIORINI RANCH
15348 LOMARDY AVE
TURLOCK, CA 95380
Phone 209-495-2792
Manager: RANDY FIORINI
15348 LOMARDY AVE
TURLOCK, CA 95380
Phone 209-495-2792

Airport Operational Statistics

Aircraft based on the field: 2
Single engine airplanes: 2
    

Additional Remarks

FOR CD CTC OAKLAND ARTCC AT 510-745-3380.

Instrument Procedures

There are no published instrument procedures at 0CN1.

Some nearby airports with instrument procedures:

KMER - Castle Airport (10 nm SE)
KMOD - Modesto City-County Airport-Harry Sham Field (14 nm NW)
KMCE - Merced Regional Airport/Macready Field (16 nm SE)
O27 - Oakdale Airport (18 nm N)
KLSN - Los Banos Municipal Airport (24 nm S)
 
Loc | Ops | Rwys | IFR | FBO | Links
Com | Nav | Svcs | Stats | Notes
Aerial photo
WARNING: Photo may not be current or correct
Aerial photo of 0CN1 (Fiorini Ranch Airport)
Photo taken 11-Mar-2017
looking north.

Do you have a better or more recent aerial photo of Fiorini Ranch Airport that you would like to share? If so, please send us your photo.

 
Airport distance calculator
Flying to Fiorini Ranch Airport? Find the distance to fly.

From to 0CN1

Sunrise and sunset
Times for 28-Nov-2022
 Local
(UTC-8)
 Zulu
(UTC)
Morning civil twilight06:2814:28
Sunrise06:5714:57
Sunset16:4500:45
Evening civil twilight17:1401:14

Current date and time
Zulu (UTC)  28-Nov-2022 09:02:18
Local (UTC-8)  28-Nov-2022 01:02:18
 
METAR
KMER 
10nm SE 
280855Z AUTO 14003KT 7SM CLR 02/02 A2998 RMK AO1
KMOD 
13nm NW 
280853Z AUTO 11005KT 6SM BR CLR 03/02 A2997 RMK AO2 SNB27E42 SLP147 P0000 60000 T00330022 58013
KMCE 
16nm SE 
280853Z AUTO 09004KT 9SM CLR 03/01 A2998 RMK AO2 SLP151 T00330006 58013
TAF
KMER 
10nm SE 
280525Z 2806/2906 VRB05KT 6SM HZ SKC
KMOD 
13nm NW 
280521Z 2806/2906 VRB03KT 4SM BR SCT250 FM280900 00000KT 3SM BR SCT200 FM281800 32008KT P6SM SCT150
KMCE 
16nm SE 
280525Z 2806/2906 00000KT 6SM HZ SKC FM281200 VRB03KT P6SM FEW250 FM281800 31007KT P6SM SKC
NOTAMs
Click for the latest NOTAMs
NOTAMs are issued by the DoD/FAA and will open in a separate window not controlled by AirNav.

 

 
 

Would you like to see your business listed on this page?

 If your business provides an interesting product or service to pilots, flight crews, aircraft, or users of the Fiorini Ranch Airport, you should consider listing it here.  To start the listing process, click on the button below
 
Add a business
 

Other Pages about Fiorini Ranch Airport

Update a link
 
Copyright © AirNav, LLC. All rights reserved. Privacy Policy  Contact